Time;durP1;ratioP1;P1;durP2;ratioP2;P2;SDS_P1;SDS_P2;PMS_P1;PMS_P2;Temp;Humidity;BMP_temperature;BMP_pressure;BME280_temperature;BME280_humidity;BME280_pressure;Samples;Min_cycle;Max_cycle;Signal;HPM_P1;HPM_P2
2022/04/27 00:04:25;;;;;;;12.03;5.80;;;;;;;8.37;67.77;100875.88;3501082;81;98615;-80
2022/04/27 00:09:27;;;;;;;15.83;6.87;;;;;;;8.29;68.43;100875.45;3539742;82;98696;-81
2022/04/27 00:14:31;;;;;;;19.60;8.23;;;;;;;8.26;68.42;100878.91;3521558;82;98654;-81
2022/04/27 00:19:32;;;;;;;14.10;6.10;;;;;;;8.19;68.65;100873.17;3528578;82;33853;-80
2022/04/27 00:24:33;;;;;;;15.93;7.17;;;;;;;8.05;69.12;100870.62;3522150;82;98679;-80
2022/04/27 00:29:34;;;;;;;15.77;7.03;;;;;;;7.93;69.39;100872.05;3529807;82;98869;-81
2022/04/27 00:34:35;;;;;;;15.07;7.23;;;;;;;7.78;69.56;100864.55;3525935;81;98638;-81
2022/04/27 00:39:36;;;;;;;13.23;7.00;;;;;;;7.77;69.22;100869.25;3534148;82;98693;-80
2022/04/27 00:44:37;;;;;;;11.43;6.13;;;;;;;7.82;69.31;100879.16;3504097;82;98852;-80
2022/04/27 00:49:42;;;;;;;14.37;6.77;;;;;;;7.82;69.90;100873.12;3535611;82;31878;-80
2022/04/27 00:54:50;;;;;;;14.10;6.85;;;;;;;7.83;69.74;100879.38;3527957;82;99132;-80
2022/04/27 00:59:52;;;;;;;13.68;6.83;;;;;;;7.83;69.94;100880.75;3534068;82;98978;-80
2022/04/27 01:04:53;;;;;;;16.97;9.35;;;;;;;7.74;70.93;100886.97;3527819;82;98562;-80
2022/04/27 01:09:55;;;;;;;22.13;11.20;;;;;;;7.71;70.68;100888.45;3534298;82;98973;-80
2022/04/27 01:14:56;;;;;;;20.23;10.05;;;;;;;7.72;70.71;100892.78;3527032;82;99150;-80
2022/04/27 01:19:58;;;;;;;22.93;10.63;;;;;;;7.75;70.44;100900.30;3535841;82;32127;-79
2022/04/27 01:24:59;;;;;;;23.50;12.43;;;;;;;7.75;70.58;100899.52;3528294;82;98687;-81
2022/04/27 01:30:00;;;;;;;19.20;10.87;;;;;;;7.75;70.86;100907.73;3533946;82;99080;-80
2022/04/27 01:35:01;;;;;;;23.03;12.90;;;;;;;7.75;70.88;100909.10;3534440;81;98917;-81
2022/04/27 01:40:02;;;;;;;20.93;11.70;;;;;;;7.72;71.35;100911.15;3519270;81;99185;-80
2022/04/27 01:45:04;;;;;;;22.30;12.27;;;;;;;7.70;71.15;100911.48;3527893;81;99133;-80
2022/04/27 01:50:05;;;;;;;20.67;10.20;;;;;;;7.69;70.38;100912.64;3534493;81;99349;-81
2022/04/27 01:55:07;;;;;;;21.23;9.50;;;;;;;7.76;69.40;100918.36;3544116;81;98646;-81
2022/04/27 02:00:10;;;;;;;18.43;8.37;;;;;;;7.89;68.51;100913.05;3496290;83;98846;-80
2022/04/27 02:05:11;;;;;;;17.92;9.05;;;;;;;7.98;67.61;100923.88;3541515;81;98696;-81
2022/04/27 02:10:12;;;;;;;17.07;8.13;;;;;;;8.03;67.24;100923.63;3543562;81;99053;-80
2022/04/27 02:15:13;;;;;;;16.60;9.00;;;;;;;8.07;66.62;100928.06;3521119;83;98481;-81
2022/04/27 02:20:14;;;;;;;16.47;8.77;;;;;;;8.06;66.31;100927.84;3526694;81;99116;-80
2022/04/27 02:25:16;;;;;;;17.13;8.37;;;;;;;7.99;66.16;100928.20;3501855;81;98460;-80
2022/04/27 02:30:18;;;;;;;17.17;9.10;;;;;;;7.91;66.21;100931.90;3539466;81;98474;-80
2022/04/27 02:35:21;;;;;;;16.50;8.43;;;;;;;7.85;66.05;100931.91;3539196;81;98410;-80
2022/04/27 02:40:21;;;;;;;16.73;8.78;;;;;;;7.81;65.88;100933.75;3536927;81;99119;-79
2022/04/27 02:45:23;;;;;;;15.90;7.50;;;;;;;7.73;66.19;100925.88;3508348;82;99133;-80
2022/04/27 02:55:44;;;;;;;17.93;8.57;;;;;;;7.63;66.88;100933.79;3515844;81;98421;-80
2022/04/27 03:00:45;;;;;;;17.25;8.68;;;;;;;7.59;67.10;100935.61;3542719;81;98509;-80
2022/04/27 03:05:46;;;;;;;15.50;7.57;;;;;;;7.58;67.42;100939.50;3535341;81;98797;-80
2022/04/27 03:10:48;;;;;;;18.42;9.20;;;;;;;7.56;67.70;100937.66;3555241;81;99069;-80
2022/04/27 03:15:49;;;;;;;20.95;10.53;;;;;;;7.57;67.43;100946.91;3516227;81;98954;-80
2022/04/27 03:20:50;;;;;;;19.53;9.40;;;;;;;7.58;67.63;100950.45;3544908;81;98915;-80
2022/04/27 03:25:51;;;;;;;23.20;10.30;;;;;;;7.61;67.43;100950.56;3564731;81;32119;-80
2022/04/27 03:30:52;;;;;;;28.47;14.47;;;;;;;7.64;67.02;100953.19;3518732;81;99206;-79
2022/04/27 03:35:53;;;;;;;45.47;23.73;;;;;;;7.69;66.80;100955.69;3550316;81;98627;-80
2022/04/27 03:40:55;;;;;;;53.07;26.87;;;;;;;7.74;66.56;100960.34;3528373;81;98808;-79
2022/04/27 03:45:56;;;;;;;53.13;23.57;;;;;;;7.81;66.66;100970.73;3546533;81;98843;-80
2022/04/27 03:50:57;;;;;;;53.87;23.53;;;;;;;7.86;66.58;100971.28;3514241;81;98870;-80
2022/04/27 03:55:58;;;;;;;37.17;19.23;;;;;;;7.91;66.58;100972.41;3528930;81;31747;-80
2022/04/27 04:00:59;;;;;;;31.57;15.00;;;;;;;7.97;66.47;100981.21;3489540;82;98763;-80
2022/04/27 04:06:00;;;;;;;23.73;11.90;;;;;;;8.05;66.50;100987.12;3521129;81;98765;-80
2022/04/27 04:11:01;;;;;;;20.33;11.23;;;;;;;8.11;66.63;100989.84;3515420;81;98905;-80
2022/04/27 04:16:02;;;;;;;22.95;10.58;;;;;;;8.17;66.80;100998.05;3513001;83;98799;-80
2022/04/27 04:21:03;;;;;;;21.07;10.23;;;;;;;8.23;66.94;101000.83;3559115;81;98902;-80
2022/04/27 04:31:23;;;;;;;24.67;13.65;;;;;;;8.35;67.10;101013.91;3517695;81;98477;-79
2022/04/27 04:36:24;;;;;;;21.33;11.73;;;;;;;8.41;66.99;101013.11;3530875;82;98724;-79
2022/04/27 04:41:25;;;;;;;20.53;11.90;;;;;;;8.48;66.99;101022.91;3527341;82;98803;-81
2022/04/27 04:46:26;;;;;;;21.37;10.43;;;;;;;8.53;67.16;101017.98;3534601;82;98859;-79
2022/04/27 04:51:27;;;;;;;18.67;10.80;;;;;;;8.60;67.25;101026.97;3528493;82;98917;-80
2022/04/27 04:56:27;;;;;;;20.57;10.10;;;;;;;8.68;67.61;101030.93;3533092;82;98867;-80
2022/04/27 05:01:28;;;;;;;24.23;10.43;;;;;;;8.77;67.36;101033.55;3528022;82;99171;-80
2022/04/27 05:06:29;;;;;;;18.33;10.27;;;;;;;8.87;67.39;101038.52;3534073;82;98908;-80
2022/04/27 05:11:30;;;;;;;18.73;10.48;;;;;;;8.92;67.47;101050.05;3527579;82;99215;-80
2022/04/27 05:16:33;;;;;;;22.53;10.47;;;;;;;9.01;66.97;101055.38;3533696;82;99261;-80
2022/04/27 05:21:33;;;;;;;25.17;10.43;;;;;;;9.10;67.08;101069.76;3527661;82;99300;-79
2022/04/27 05:26:34;;;;;;;20.57;10.67;;;;;;;9.19;67.13;101068.44;3533182;82;98773;-80
2022/04/27 05:36:55;;;;;;;25.92;11.28;;;;;;;9.31;66.84;101079.91;3516744;82;98568;-81
2022/04/27 05:41:56;;;;;;;18.23;9.83;;;;;;;9.39;66.42;101087.20;3513455;80;98638;-85
2022/04/27 05:46:57;;;;;;;19.67;9.67;;;;;;;9.45;66.48;101088.53;3524107;82;98620;-83
2022/04/27 05:51:58;;;;;;;23.80;10.50;;;;;;;9.53;66.43;101093.05;3491475;82;98628;-84
2022/04/27 05:56:59;;;;;;;25.37;10.77;;;;;;;9.61;66.48;101095.66;3521331;81;99224;-84
2022/04/27 06:02:00;;;;;;;21.97;11.57;;;;;;;9.71;66.21;101105.31;3519112;82;98781;-85
2022/04/27 06:07:01;;;;;;;27.77;10.80;;;;;;;9.81;66.27;101112.44;3525441;82;98688;-84
2022/04/27 06:12:02;;;;;;;31.83;12.60;;;;;;;9.92;66.07;101114.09;3494244;83;98786;-84
2022/04/27 06:17:04;;;;;;;22.83;9.80;;;;;;;10.03;66.38;101122.80;3515720;82;99143;-84
2022/04/27 06:22:05;;;;;;;24.27;11.17;;;;;;;10.20;66.07;101124.42;3514236;81;99056;-84
2022/04/27 06:27:06;;;;;;;27.87;11.70;;;;;;;10.29;65.73;101131.32;3523933;81;99208;-85
2022/04/27 06:32:07;;;;;;;26.10;11.17;;;;;;;10.39;65.42;101142.34;3518182;82;99230;-85
2022/04/27 06:37:08;;;;;;;23.27;10.87;;;;;;;10.50;65.35;101146.14;3556423;81;33809;-85
2022/04/27 06:42:09;;;;;;;30.40;11.35;;;;;;;10.56;64.92;101155.14;3552341;81;99357;-86
2022/04/27 06:47:10;;;;;;;24.93;10.90;;;;;;;10.63;64.47;101155.89;3556538;81;99585;-85
2022/04/27 06:52:11;;;;;;;27.40;11.47;;;;;;;10.64;64.18;101145.87;3546918;81;99646;-85
2022/04/27 06:57:12;;;;;;;25.87;11.37;;;;;;;10.86;64.60;101167.20;3556408;81;99207;-87
2022/04/27 07:02:15;;;;;;;20.23;10.30;;;;;;;10.98;63.36;101165.72;3539830;81;99286;-87
2022/04/27 07:07:16;;;;;;;24.15;11.03;;;;;;;11.03;63.10;101167.38;3553257;81;32469;-86
2022/04/27 07:12:17;;;;;;;20.70;10.33;;;;;;;11.05;63.02;101151.27;3554888;82;99172;-86
2022/04/27 07:17:19;;;;;;;25.63;11.00;;;;;;;11.40;63.41;101167.16;3557892;81;99197;-87
2022/04/27 07:22:20;;;;;;;23.57;10.77;;;;;;;11.57;62.84;101170.82;3548791;82;99548;-86
2022/04/27 07:27:20;;;;;;;19.02;10.20;;;;;;;11.89;62.62;101163.96;3543012;81;99460;-86
2022/04/27 07:32:21;;;;;;;22.17;9.90;;;;;;;12.11;61.78;101179.11;3548922;81;99447;-86
2022/04/27 07:37:22;;;;;;;24.10;11.33;;;;;;;12.37;62.03;101183.28;3554753;81;26161;-85
2022/04/27 07:42:23;;;;;;;21.03;11.77;;;;;;;12.61;60.89;101187.03;3549200;81;99110;-86
2022/04/27 07:47:24;;;;;;;30.07;11.30;;;;;;;12.95;61.42;101194.22;3557031;81;99508;-85
2022/04/27 07:52:25;;;;;;;21.78;10.98;;;;;;;13.16;60.94;101195.91;3547701;81;99447;-86
2022/04/27 07:57:31;;;;;;;19.87;9.97;;;;;;;13.56;60.52;101200.72;3553522;81;99186;-86
2022/04/27 08:02:32;;;;;;;21.93;9.97;;;;;;;13.85;59.34;101202.63;3554624;81;99090;-86
2022/04/27 08:07:47;;;;;;;19.43;11.00;;;;;;;14.03;59.73;101203.59;3550714;83;33672;-87
2022/04/27 08:12:47;;;;;;;18.50;9.80;;;;;;;14.41;59.26;101209.51;3517319;81;99431;-86
2022/04/27 08:18:04;;;;;;;16.50;8.95;;;;;;;14.73;58.12;101220.23;3560767;81;98799;-86
2022/04/27 08:23:10;;;;;;;19.20;9.80;;;;;;;14.81;55.53;101224.63;3550861;81;99072;-85
2022/04/27 08:28:11;;;;;;;;;;;;;;;15.07;56.26;101223.59;3560111;81;99377;-86
2022/04/27 08:33:13;;;;;;;33.57;11.80;;;;;;;15.31;52.36;101218.78;3546337;82;85121;-84
2022/04/27 08:38:15;;;;;;;21.40;10.50;;;;;;;15.67;54.62;101229.64;3553713;81;99184;-85
2022/04/27 08:43:16;;;;;;;18.70;9.53;;;;;;;16.28;55.39;101222.99;3552954;81;99320;-85
2022/04/27 08:48:21;;;;;;;16.73;9.10;;;;;;;16.71;53.51;101217.65;3553644;81;98884;-85
2022/04/27 08:53:22;;;;;;;19.12;9.53;;;;;;;17.18;52.29;101214.38;3534448;81;99275;-86
2022/04/27 08:58:24;;;;;;;21.30;8.93;;;;;;;17.52;51.42;101216.84;3551686;81;99161;-86
2022/04/27 09:03:39;;;;;;;14.75;8.15;;;;;;;17.82;50.04;101217.88;3548345;81;99150;-85
2022/04/27 09:08:49;;;;;;;16.90;7.72;;;;;;;18.23;49.37;101216.02;3553532;82;99101;-85
2022/04/27 09:14:03;;;;;;;15.38;7.85;;;;;;;18.72;47.97;101217.02;3554147;81;99286;-85
2022/04/27 09:24:28;;;;;;;14.40;7.28;;;;;;;19.14;45.35;101219.97;3547797;81;98869;-83
2022/04/27 09:29:29;;;;;;;15.72;6.12;;;;;;;19.56;44.15;101220.89;3556977;83;98770;-85
2022/04/27 09:34:33;;;;;;;11.50;5.93;;;;;;;19.99;43.92;101219.09;3545089;81;98878;-86
2022/04/27 09:39:34;;;;;;;11.25;5.87;;;;;;;20.44;43.56;101212.78;3556493;81;99305;-85
2022/04/27 09:44:38;;;;;;;17.43;5.00;;;;;;;20.98;43.44;101224.04;3541869;81;99335;-83
2022/04/27 09:49:43;;;;;;;13.05;6.12;;;;;;;21.51;42.58;101221.58;3560955;81;25939;-84
2022/04/27 09:54:45;;;;;;;10.90;6.08;;;;;;;22.16;42.95;101218.55;3549358;81;98853;-85
2022/04/27 09:59:48;;;;;;;11.05;5.87;;;;;;;22.70;41.89;101217.42;3555045;81;99253;-84
2022/04/27 10:04:51;;;;;;;10.25;5.12;;;;;;;23.25;41.39;101214.33;3546391;81;99584;-85
2022/04/27 10:09:54;;;;;;;20.10;5.80;;;;;;;23.41;38.25;101215.06;3558220;81;99050;-84
2022/04/27 10:14:57;;;;;;;12.37;5.20;;;;;;;23.47;38.68;101211.88;3553758;81;99119;-85
2022/04/27 10:19:57;;;;;;;9.93;5.45;;;;;;;;;;3559367;81;25898;-85
2022/04/27 10:25:08;;;;;;;9.05;4.60;;;;;;;23.37;36.01;101215.01;3552290;81;71760;-85
2022/04/27 10:30:13;;;;;;;9.63;4.62;;;;;;;23.17;37.39;101218.55;3543284;81;99126;-85
2022/04/27 10:35:27;;;;;;;9.13;4.47;;;;;;;22.81;36.80;101218.73;3546896;81;99257;-84
2022/04/27 10:40:33;;;;;;;22.10;4.65;;;;;;;22.78;37.20;101223.03;3520517;82;98844;-84
2022/04/27 10:45:38;;;;;;;10.00;4.55;;;;;;;22.46;36.82;101216.05;3522493;82;98995;-84
2022/04/27 10:50:39;;;;;;;7.30;4.20;;;;;;;22.27;36.97;101220.48;3522269;82;99587;-85
2022/04/27 10:55:43;;;;;;;10.63;5.13;;;;;;;22.38;36.72;101221.61;3525238;82;99003;-84
2022/04/27 11:01:11;;;;;;;8.88;5.42;;;;;;;22.27;35.88;101221.08;3532151;82;98839;-84
2022/04/27 11:06:13;;;;;;;13.98;4.75;;;;;;;21.87;35.83;101210.63;3525525;82;99140;-84
2022/04/27 11:11:19;;;;;;;11.28;5.28;;;;;;;21.47;36.41;101217.45;3523655;82;99420;-84
2022/04/27 11:16:20;;;;;;;8.18;4.60;;;;;;;21.95;35.41;101218.23;3527753;82;99507;-81
2022/04/27 11:21:25;;;;;;;7.28;4.58;;;;;;;21.89;35.24;101220.77;3523432;82;98994;-84
2022/04/27 11:26:26;;;;;;;;;;;;;;;22.12;36.20;101210.05;3531458;82;99192;-84
2022/04/27 11:31:27;;;;;;;10.58;3.35;;;;;;;22.74;35.15;101204.09;3500254;82;83920;-83
2022/04/27 11:36:29;;;;;;;7.92;4.40;;;;;;;22.90;34.30;101199.84;3509836;81;99062;-83
2022/04/27 11:41:35;;;;;;;9.78;4.72;;;;;;;23.43;34.38;101197.77;3546515;81;99177;-87
2022/04/27 11:46:37;;;;;;;6.35;3.47;;;;;;;23.71;32.77;101202.54;3549711;81;99355;-85
2022/04/27 11:51:38;;;;;;;8.35;3.37;;;;;;;23.72;32.96;101196.48;3535103;82;99400;-84
2022/04/27 11:56:41;;;;;;;9.88;5.15;;;;;;;23.57;33.33;101199.55;3538060;83;98787;-85
2022/04/27 12:01:52;;;;;;;7.05;3.70;;;;;;;23.41;31.74;101198.21;3555533;81;98897;-85
2022/04/27 12:06:53;;;;;;;8.83;4.60;;;;;;;23.19;33.60;101200.66;3559630;81;97644;-83
2022/04/27 12:11:57;;;;;;;10.08;4.17;;;;;;;22.89;31.66;101199.68;3564721;81;99156;-84
2022/04/27 12:16:58;;;;;;;11.40;4.93;;;;;;;22.70;33.10;101199.98;3569987;80;99419;-84
2022/04/27 12:22:16;;;;;;;13.43;5.37;;;;;;;22.68;34.34;101198.20;3561516;81;99477;-84
2022/04/27 12:27:23;;;;;;;7.90;4.20;;;;;;;22.58;33.01;101194.28;3550382;81;99472;-84
2022/04/27 12:32:24;;;;;;;17.45;4.00;;;;;;;22.44;34.08;101195.44;3553866;81;99317;-86
2022/04/27 12:37:36;;;;;;;9.08;3.98;;;;;;;22.39;35.10;101200.77;3545798;81;26401;-85
2022/04/27 12:42:37;;;;;;;6.47;3.80;;;;;;;22.38;34.65;101190.75;3510128;82;99218;-85
2022/04/27 12:47:48;;;;;;;8.03;3.33;;;;;;;22.41;34.70;101190.69;3499660;81;99205;-86
2022/04/27 12:52:50;;;;;;;6.75;3.72;;;;;;;22.35;33.12;101188.21;3513747;82;99540;-84
2022/04/27 12:57:56;;;;;;;7.55;3.17;;;;;;;22.00;33.89;101182.67;3517308;82;99323;-86
2022/04/27 13:02:56;;;;;;;10.28;3.50;;;;;;;21.97;34.07;101184.34;3499124;81;99250;-83
2022/04/27 13:07:57;;;;;;;10.50;3.83;;;;;;;21.90;33.89;101183.73;3517422;82;26416;-86
2022/04/27 13:12:58;;;;;;;8.90;3.47;;;;;;;21.54;33.95;101186.52;3512601;82;99037;-86
2022/04/27 13:18:00;;;;;;;8.93;3.63;;;;;;;21.23;33.73;101187.16;3521323;82;99145;-85
2022/04/27 13:23:01;;;;;;;5.43;2.90;;;;;;;21.26;33.57;101186.31;3512826;82;99276;-86
2022/04/27 13:28:02;;;;;;;5.73;3.00;;;;;;;20.99;34.59;101188.45;3492171;81;99358;-85
2022/04/27 13:33:03;;;;;;;5.53;2.70;;;;;;;21.12;34.41;101184.59;3513209;82;98928;-84
2022/04/27 13:38:06;;;;;;;6.83;3.40;;;;;;;21.26;34.88;101186.31;3536061;81;26014;-85
2022/04/27 13:43:07;;;;;;;8.37;3.67;;;;;;;21.30;33.91;101180.04;3554076;81;98802;-85
2022/04/27 13:48:08;;;;;;;9.40;4.00;;;;;;;21.38;35.69;101176.66;3582311;80;98654;-86
2022/04/27 13:53:09;;;;;;;8.48;3.55;;;;;;;21.36;34.02;101184.68;3518019;81;99180;-86
2022/04/27 13:58:10;;;;;;;7.43;3.40;;;;;;;21.40;35.79;101182.61;3514048;82;98815;-85
2022/04/27 14:03:11;;;;;;;7.25;3.27;;;;;;;21.54;35.99;101174.51;3549318;82;99118;-83
2022/04/27 14:08:12;;;;;;;84.33;11.33;;;;;;;21.50;35.04;101173.19;3550358;81;99652;-84
2022/04/27 14:13:17;;;;;;;12.00;4.00;;;;;;;21.44;34.44;101170.72;3548578;82;99273;-84
2022/04/27 14:18:18;;;;;;;6.20;2.98;;;;;;;21.26;34.92;101179.31;3556808;81;99148;-84
2022/04/27 14:23:19;;;;;;;7.33;3.22;;;;;;;20.93;34.89;101170.59;3552885;81;99419;-84
2022/04/27 14:28:22;;;;;;;7.87;3.60;;;;;;;20.81;34.35;101171.97;3550503;82;99465;-84
2022/04/27 14:33:23;;;;;;;8.70;4.05;;;;;;;20.24;34.56;101185.38;3525228;81;99022;-85
2022/04/27 14:38:24;;;;;;;7.83;4.10;;;;;;;19.90;36.25;101180.48;3479857;82;99234;-85
2022/04/27 14:43:25;;;;;;;15.10;4.67;;;;;;;19.93;37.80;101178.25;3468501;83;98786;-85
2022/04/27 14:48:26;;;;;;;15.60;4.42;;;;;;;19.02;36.66;101169.66;3497516;81;99476;-86
2022/04/27 14:53:27;;;;;;;9.60;4.70;;;;;;;19.02;36.66;101169.66;3492953;81;99491;-86
2022/04/27 14:58:29;;;;;;;8.07;4.47;;;;;;;18.91;36.73;101168.22;3495272;83;98799;-84
2022/04/27 15:03:30;;;;;;;6.97;3.87;;;;;;;18.83;36.77;101167.50;3491989;81;99158;-86
2022/04/27 15:08:31;;;;;;;10.13;4.40;;;;;;;18.80;37.55;101166.15;3494506;82;98772;-84
2022/04/27 15:13:37;;;;;;;8.10;4.53;;;;;;;18.89;37.81;101165.84;3488451;83;99044;-87
2022/04/27 15:18:38;;;;;;;;;;;;;;;18.91;36.98;101159.85;3494602;83;98652;-87
2022/04/27 15:23:39;;;;;;;10.73;3.60;;;;;;;19.02;39.04;101161.92;3490177;81;84697;-87
2022/04/27 15:28:40;;;;;;;8.80;4.00;;;;;;;19.11;38.91;101161.59;3496747;83;98986;-87
2022/04/27 15:33:41;;;;;;;7.83;4.00;;;;;;;19.18;39.81;101159.33;3462503;83;98844;-86
2022/04/27 15:38:42;;;;;;;8.93;4.20;;;;;;;19.17;38.30;101164.70;3497793;82;99125;-86
2022/04/27 15:43:43;;;;;;;9.73;4.73;;;;;;;18.86;37.90;101161.70;3501896;82;98610;-85
2022/04/27 15:48:44;;;;;;;8.77;4.17;;;;;;;18.78;38.42;101165.75;3505656;79;98681;-86
2022/04/27 15:53:45;;;;;;;10.23;4.77;;;;;;;18.86;38.66;101168.05;3507932;81;98762;-87
2022/04/27 15:58:46;;;;;;;13.47;5.40;;;;;;;18.57;38.02;101163.98;3515286;82;99007;-87
2022/04/27 16:03:48;;;;;;;10.70;4.23;;;;;;;18.38;38.83;101163.77;3514155;81;99008;-86
2022/04/27 16:08:49;;;;;;;12.93;5.23;;;;;;;18.38;39.39;101160.98;3514022;82;99369;-87
2022/04/27 16:13:51;;;;;;;18.13;6.80;;;;;;;18.23;38.31;101159.48;3513611;82;98720;-87
2022/04/27 16:18:51;;;;;;;11.20;4.80;;;;;;;17.98;38.59;101162.47;3517886;81;99090;-87
2022/04/27 16:23:52;;;;;;;10.83;5.33;;;;;;;17.72;38.73;101161.64;3505051;82;98976;-89
2022/04/27 16:28:56;;;;;;;13.95;7.08;;;;;;;17.56;39.35;101166.14;3512256;82;98911;-88
2022/04/27 16:33:57;;;;;;;12.47;5.53;;;;;;;17.49;40.03;101168.35;3508046;82;98991;-87
2022/04/27 16:38:58;;;;;;;11.33;4.53;;;;;;;17.44;40.15;101166.61;3506561;82;99047;-87
2022/04/27 16:44:03;;;;;;;8.37;4.90;;;;;;;17.42;40.68;101172.57;3511641;82;98626;-89
2022/04/27 16:49:03;;;;;;;9.28;5.17;;;;;;;17.35;41.49;101175.36;3506086;82;98506;-87
2022/04/27 16:54:05;;;;;;;10.00;4.43;;;;;;;17.15;39.84;101174.25;3507439;81;98622;-89
2022/04/27 16:59:06;;;;;;;10.70;5.13;;;;;;;17.03;40.43;101169.13;3522249;82;99287;-88
2022/04/27 17:04:10;;;;;;;13.37;5.03;;;;;;;16.99;41.12;101170.31;3510397;82;99384;-88
2022/04/27 17:09:10;;;;;;;10.58;5.65;;;;;;;16.95;41.58;101171.72;3518286;82;99375;-88
2022/04/27 17:14:12;;;;;;;11.77;6.50;;;;;;;16.99;41.92;101180.05;3516094;81;99132;-89
2022/04/27 17:19:12;;;;;;;14.23;6.20;;;;;;;16.91;41.56;101184.87;3521257;82;29495;-89
2022/04/27 17:24:15;;;;;;;16.37;6.42;;;;;;;16.71;41.81;101183.71;3509812;81;98963;-89
2022/04/27 17:29:17;;;;;;;10.13;5.30;;;;;;;16.66;42.11;101194.42;3515502;82;98922;-88
2022/04/27 17:44:26;;;;;;;18.00;10.28;;;;;;;16.25;42.96;101198.80;3525057;82;99061;-87
2022/04/27 17:49:27;;;;;;;23.40;11.03;;;;;;;16.19;43.89;101202.55;3564314;82;99351;-87
2022/04/27 17:54:28;;;;;;;13.03;8.10;;;;;;;16.13;44.23;101207.53;3564277;82;99124;-88
2022/04/27 17:59:29;;;;;;;18.07;11.57;;;;;;;16.02;44.45;101212.28;3561611;82;98990;-90
2022/04/27 18:04:29;;;;;;;23.47;11.40;;;;;;;15.92;44.83;101235.26;3475703;84;99174;-88
2022/04/27 18:09:31;;;;;;;29.37;16.27;;;;;;;15.67;45.56;101237.97;3487340;83;99137;-88
2022/04/27 18:14:32;;;;;;;19.13;9.93;;;;;;;15.43;46.89;101241.42;3494309;83;99013;-87
2022/04/27 18:19:33;;;;;;;15.63;7.90;;;;;;;15.38;48.48;101249.34;3441993;85;98761;-86
2022/04/27 18:24:34;;;;;;;17.73;8.50;;;;;;;15.35;48.89;101271.72;3492199;83;99267;-85
2022/04/27 18:29:36;;;;;;;16.23;7.40;;;;;;;15.17;48.58;101281.90;3496111;84;99536;-86
2022/04/27 18:34:37;;;;;;;14.67;7.77;;;;;;;14.96;49.45;101298.97;3494698;83;99081;-85
2022/04/27 18:39:38;;;;;;;33.80;16.57;;;;;;;14.71;50.30;101293.84;3498135;83;98985;-83
2022/04/27 18:49:57;;;;;;;21.90;12.53;;;;;;;14.25;53.22;101293.43;3509916;82;31789;-83
2022/04/27 18:54:59;;;;;;;25.20;18.12;;;;;;;14.02;54.10;101291.95;3502381;83;99088;-83
2022/04/27 19:00:07;;;;;;;38.53;25.68;;;;;;;13.86;54.29;101296.91;3502810;83;99731;-84
2022/04/27 19:05:08;;;;;;;24.77;15.40;;;;;;;13.70;55.50;101301.28;3491300;83;99284;-84
2022/04/27 19:10:09;;;;;;;15.80;9.60;;;;;;;13.55;56.12;101308.37;3506468;82;99212;-83
2022/04/27 19:15:11;;;;;;;16.47;9.17;;;;;;;13.42;56.81;101303.66;3496409;83;99426;-84
2022/04/27 19:20:12;;;;;;;13.75;8.63;;;;;;;13.25;57.54;101295.92;3544490;83;33606;-84
2022/04/27 19:25:13;;;;;;;16.03;9.67;;;;;;;13.22;57.94;101300.02;3477583;84;99254;-85
2022/04/27 19:30:15;;;;;;;19.73;10.72;;;;;;;13.15;58.40;101302.13;3521499;82;99168;-84
2022/04/27 19:35:18;;;;;;;15.00;9.27;;;;;;;13.09;58.57;101304.97;3486863;83;99224;-85
2022/04/27 19:40:19;;;;;;;14.75;8.63;;;;;;;13.01;58.64;101309.38;3504240;83;99410;-84
2022/04/27 19:45:20;;;;;;;15.47;9.20;;;;;;;12.89;59.13;101306.23;3555825;82;99032;-84
2022/04/27 19:50:22;;;;;;;20.20;11.53;;;;;;;12.80;59.51;101300.16;3564223;82;25992;-85
2022/04/27 19:55:28;;;;;;;17.60;9.70;;;;;;;12.79;59.72;101307.42;3536873;82;99121;-84
2022/04/27 20:00:29;;;;;;;17.23;9.70;;;;;;;12.66;60.75;101304.66;3499744;83;99187;-85
2022/04/27 20:05:30;;;;;;;14.70;9.23;;;;;;;12.51;61.05;101300.05;3551397;81;98938;-85
2022/04/27 20:10:31;;;;;;;17.87;8.57;;;;;;;12.32;61.38;101307.81;3492859;83;99083;-84
2022/04/27 20:15:32;;;;;;;16.27;9.37;;;;;;;12.10;62.16;101276.86;3482377;83;99324;-84
2022/04/27 20:20:33;;;;;;;17.07;9.60;;;;;;;12.02;62.53;101300.55;3513692;83;31593;-85
2022/04/27 20:25:35;;;;;;;15.27;8.90;;;;;;;11.88;63.27;101309.94;3532757;83;98846;-85
2022/04/27 20:30:38;;;;;;;16.07;10.13;;;;;;;11.72;63.81;101308.63;3515503;83;98921;-85
2022/04/27 20:35:39;;;;;;;17.85;10.58;;;;;;;11.43;64.93;101306.41;3475992;83;99079;-85
2022/04/27 20:40:40;;;;;;;17.90;11.63;;;;;;;11.43;64.93;101306.41;3470079;83;99229;-84
2022/04/27 20:45:42;;;;;;;20.07;11.67;;;;;;;11.33;65.25;101309.73;3509257;82;99273;-85
2022/04/27 20:50:43;;;;;;;22.77;12.43;;;;;;;11.12;65.79;101307.87;3495235;82;99574;-85
2022/04/27 20:55:44;;;;;;;16.90;10.00;;;;;;;10.95;66.49;101312.41;3512347;82;98823;-84
2022/04/27 21:00:46;;;;;;;25.23;12.70;;;;;;;10.49;67.59;101300.05;3509350;82;98983;-85
2022/04/27 21:05:47;;;;;;;24.67;12.70;;;;;;;10.49;67.59;101300.05;3512510;82;99161;-86
2022/04/27 21:10:48;;;;;;;21.37;11.40;;;;;;;10.38;68.09;101309.98;3499165;81;99230;-85
2022/04/27 21:15:49;;;;;;;20.23;12.40;;;;;;;10.22;68.58;101317.42;3441341;84;99573;-85
2022/04/27 21:20:50;;;;;;;21.77;11.33;;;;;;;10.00;69.27;101317.41;3514098;82;99949;-85
2022/04/27 21:25:51;;;;;;;20.43;10.93;;;;;;;9.85;69.60;101322.84;3518754;82;31694;-85
2022/04/27 21:30:52;;;;;;;20.20;11.10;;;;;;;9.71;70.12;101326.00;3490217;83;99260;-83
2022/04/27 21:35:53;;;;;;;20.07;11.70;;;;;;;9.52;70.29;101334.09;3567415;82;98847;-83
2022/04/27 21:40:54;;;;;;;22.67;11.70;;;;;;;9.36;70.51;101336.52;3559398;82;98890;-82
2022/04/27 21:45:55;;;;;;;21.07;12.23;;;;;;;9.25;70.74;101338.95;3527587;83;98798;-82
2022/04/27 21:50:56;;;;;;;21.07;11.93;;;;;;;9.11;71.02;101340.47;3501740;84;98876;-82
2022/04/27 21:55:57;;;;;;;26.37;14.70;;;;;;;8.97;71.50;101344.94;3437691;84;31603;-83
2022/04/27 22:01:13;;;;;;;23.17;13.73;;;;;;;8.80;71.86;101330.62;3417355;84;98712;-83
2022/04/27 22:06:12;;;;;;;22.93;14.07;;;;;;;8.74;72.05;101347.91;3508068;83;99020;-82
2022/04/27 22:11:13;;;;;;;26.07;15.40;;;;;;;8.57;72.75;101351.44;3503283;83;98865;-82
2022/04/27 22:16:14;;;;;;;26.97;14.53;;;;;;;8.43;73.09;101349.01;3463929;84;98732;-83
2022/04/27 22:21:15;;;;;;;27.50;14.50;;;;;;;8.37;73.45;101350.93;3430719;84;99173;-82
2022/04/27 22:26:17;;;;;;;23.50;12.83;;;;;;;8.23;73.37;101353.20;3514174;83;26540;-83
2022/04/27 22:31:25;;;;;;;25.53;12.83;;;;;;;8.13;73.64;101350.84;3509820;83;98782;-83
2022/04/27 22:36:23;;;;;;;22.95;13.30;;;;;;;8.05;73.87;101351.72;3507670;83;98776;-83
2022/04/27 22:41:24;;;;;;;21.45;12.85;;;;;;;7.96;73.85;101363.35;3444117;84;98921;-83
2022/04/27 22:46:25;;;;;;;24.53;13.40;;;;;;;7.88;74.20;101356.00;3543005;82;99192;-83
2022/04/27 22:51:26;;;;;;;24.97;12.73;;;;;;;7.76;74.44;101358.13;3502276;83;99283;-83
2022/04/27 22:56:27;;;;;;;25.23;13.70;;;;;;;7.65;74.37;101362.97;3532409;83;35106;-83
2022/04/27 23:01:29;;;;;;;25.00;12.77;;;;;;;7.57;74.47;101359.72;3502955;83;98991;-83
2022/04/27 23:06:30;;;;;;;23.30;12.90;;;;;;;7.49;74.66;101364.70;3541075;83;98684;-82
2022/04/27 23:11:31;;;;;;;24.50;13.47;;;;;;;7.35;75.13;101360.86;3523263;83;99293;-83
2022/04/27 23:16:31;;;;;;;22.20;13.07;;;;;;;7.16;75.89;101367.91;3540013;83;98754;-83
2022/04/27 23:21:32;;;;;;;24.37;12.90;;;;;;;7.04;76.14;101367.23;3522324;82;98942;-83
2022/04/27 23:26:33;;;;;;;21.80;12.37;;;;;;;6.94;76.16;101367.64;3544081;83;35441;-82
2022/04/27 23:31:34;;;;;;;22.57;12.90;;;;;;;6.87;76.46;101363.81;3514976;82;98994;-82
2022/04/27 23:36:35;;;;;;;20.17;12.03;;;;;;;6.80;76.44;101367.05;3503277;83;98798;-83
2022/04/27 23:41:36;;;;;;;19.87;11.30;;;;;;;6.70;76.49;101373.47;3528243;83;98951;-82
2022/04/27 23:46:37;;;;;;;16.77;10.10;;;;;;;6.56;76.83;101370.95;3504363;83;99251;-83
2022/04/27 23:51:40;;;;;;;19.30;9.83;;;;;;;6.49;76.93;101361.64;3436792;85;98908;-82